Weather at Alcoota Station Airport

Public forecast

Using degrees Celsius for public forecast. Weather courtesy of forecast.io.

Closest aviation weather report (METAR) to Alcoota Station Airport

Closest report is Alice Springs Airport, 65.8 nm (121.8 km) SSW. Retrieved 2021/06/20 03:30 UTC (14 minutes ago):

YBAS 200330Z AUTO 11007KT 9999 // NCD 16/04 Q1021 RF000/0000

Closest aviation forecast (TAF) to Alcoota Station Airport

Closest forecast is Alice Springs Airport, 65.8 nm (121.8 km) SSW. Retrieved 2021-06-20 00:00 UTC (4 hours ago):

TAF YBAS 192302Z 2000/2100 10010KT CAVOK FM200800 11005KT CAVOK FM201400 06005KT CAVOK